This is the latest recevied weather packets stored in our database for station/object N7CW. If no packets are shown the sender has not sent any weather packets the latest 10 day(s).
| Time | Temp. | Humidity | Pressure | Rain* | Wind** | Luminosity | Snow |
|---|---|---|---|---|---|---|---|
| 1777465497 | 5° C | 48% | 1019 hPa | 0 mm | - | 0 W/m² | - |
| 1777465196 | 5° C | 47% | 1018.7 hPa | 0 mm | - | 0 W/m² | - |
| 1777464892 | 5.56° C | 46% | 1019 hPa | 0 mm | - | 0 W/m² | - |
| 1777464587 | 5° C | 46% | 1018.7 hPa | 0 mm | - | 0 W/m² | - |
| 1777464284 | 5.56° C | 45% | 1019 hPa | 0 mm | - | 0 W/m² | - |
| 1777463978 | 5.56° C | 45% | 1019 hPa | 0 mm | - | 0 W/m² | - |
| 1777463673 | 5.56° C | 44% | 1019.1 hPa | 0 mm | - | 0 W/m² | - |
| 1777463369 | 5.56° C | 44% | 1019.2 hPa | 0 mm | - | 0 W/m² | - |
| 1777463065 | 5.56° C | 43% | 1019.2 hPa | 0 mm | - | 0 W/m² | - |
| 1777462760 | 5.56° C | 42% | 1019.3 hPa | 0 mm | - | 0 W/m² | - |
| 1777462456 | 5° C | 43% | 1019.2 hPa | 0 mm | - | 0 W/m² | - |
| 1777462153 | 4.44° C | 44% | 1019.1 hPa | 0 mm | - | 0 W/m² | - |
| 1777461849 | 3.89° C | 45% | 1019.2 hPa | 0 mm | - | 0 W/m² | - |
| 1777461546 | 3.33° C | 46% | 1019.3 hPa | 0 mm | - | 0 W/m² | - |
| 1777461241 | 3.33° C | 46% | 1019.2 hPa | 0 mm | - | 0 W/m² | - |
| 1777460937 | 3.89° C | 45% | 1019.1 hPa | 0 mm | - | 0 W/m² | - |
| 1777460632 | 4.44° C | 44% | 1019 hPa | 0 mm | - | 0 W/m² | - |
| 1777460329 | 5° C | 42% | 1019.1 hPa | 0 mm | - | 0 W/m² | - |
| 1777460026 | 4.44° C | 42% | 1019.1 hPa | 0 mm | - | 0 W/m² | - |
| 1777459723 | 4.44° C | 44% | 1019.2 hPa | 0 mm | - | 0 W/m² | - |
| 1777459419 | 5° C | 42% | 1019 hPa | 0 mm | - | 0 W/m² | - |
| 1777459116 | 5° C | 41% | 1019 hPa | 0 mm | - | 0 W/m² | - |
| 1777458814 | 5° C | 43% | 1019.2 hPa | 0 mm | - | 0 W/m² | - |
| 1777458504 | 5.56° C | 42% | 1019.1 hPa | 0 mm | - | 0 W/m² | - |
| 1777458202 | 6.11° C | 39% | 1019.1 hPa | 0 mm | - | 0 W/m² | - |
* Rain latest hour (hover to see other rain measurements)
** Current wind speed in m/s (hover to see current wind gust speed)